sensor_id;sensor_type;location;lat;lon;timestamp;P1;durP1;ratioP1;P2;durP2;ratioP2
29380;SDS011;16364;52.490;13.326;2024-03-06T00:01:05;23.13;;;13.93;;
29380;SDS011;16364;52.490;13.326;2024-03-06T00:03:31;19.27;;;13.50;;
29380;SDS011;16364;52.490;13.326;2024-03-06T00:05:57;23.50;;;12.00;;
29380;SDS011;16364;52.490;13.326;2024-03-06T00:08:22;27.43;;;14.67;;
29380;SDS011;16364;52.490;13.326;2024-03-06T00:10:47;22.83;;;14.87;;
29380;SDS011;16364;52.490;13.326;2024-03-06T00:13:13;16.00;;;12.40;;
29380;SDS011;16364;52.490;13.326;2024-03-06T00:15:38;17.60;;;12.33;;
29380;SDS011;16364;52.490;13.326;2024-03-06T00:18:03;20.80;;;14.10;;
29380;SDS011;16364;52.490;13.326;2024-03-06T00:20:30;21.33;;;14.27;;
29380;SDS011;16364;52.490;13.326;2024-03-06T00:22:55;18.33;;;13.40;;
29380;SDS011;16364;52.490;13.326;2024-03-06T00:25:20;19.70;;;13.53;;
29380;SDS011;16364;52.490;13.326;2024-03-06T00:27:46;25.50;;;14.00;;
29380;SDS011;16364;52.490;13.326;2024-03-06T00:30:11;19.87;;;13.67;;
29380;SDS011;16364;52.490;13.326;2024-03-06T00:32:36;21.10;;;15.00;;
29380;SDS011;16364;52.490;13.326;2024-03-06T00:35:01;19.13;;;14.43;;
29380;SDS011;16364;52.490;13.326;2024-03-06T00:37:27;21.43;;;15.10;;
29380;SDS011;16364;52.490;13.326;2024-03-06T00:39:52;24.37;;;13.67;;
29380;SDS011;16364;52.490;13.326;2024-03-06T00:42:17;20.67;;;13.90;;
29380;SDS011;16364;52.490;13.326;2024-03-06T00:44:43;21.67;;;13.23;;
29380;SDS011;16364;52.490;13.326;2024-03-06T00:47:08;21.10;;;13.20;;
29380;SDS011;16364;52.490;13.326;2024-03-06T00:49:33;22.63;;;14.10;;
29380;SDS011;16364;52.490;13.326;2024-03-06T00:51:58;20.57;;;13.70;;
29380;SDS011;16364;52.490;13.326;2024-03-06T00:54:24;23.00;;;14.93;;
29380;SDS011;16364;52.490;13.326;2024-03-06T00:56:49;20.00;;;12.33;;
29380;SDS011;16364;52.490;13.326;2024-03-06T00:59:14;19.90;;;13.73;;
29380;SDS011;16364;52.490;13.326;2024-03-06T01:01:39;23.07;;;13.80;;
29380;SDS011;16364;52.490;13.326;2024-03-06T01:04:05;21.40;;;14.27;;
29380;SDS011;16364;52.490;13.326;2024-03-06T01:06:30;24.03;;;15.20;;
29380;SDS011;16364;52.490;13.326;2024-03-06T01:08:55;20.03;;;14.17;;
29380;SDS011;16364;52.490;13.326;2024-03-06T01:11:22;24.03;;;14.37;;
29380;SDS011;16364;52.490;13.326;2024-03-06T01:13:47;21.27;;;13.83;;
29380;SDS011;16364;52.490;13.326;2024-03-06T01:16:12;19.60;;;12.93;;
29380;SDS011;16364;52.490;13.326;2024-03-06T01:18:38;19.70;;;13.47;;
29380;SDS011;16364;52.490;13.326;2024-03-06T01:21:03;21.00;;;13.80;;
29380;SDS011;16364;52.490;13.326;2024-03-06T01:23:28;19.83;;;12.07;;
29380;SDS011;16364;52.490;13.326;2024-03-06T01:25:54;21.30;;;13.07;;
29380;SDS011;16364;52.490;13.326;2024-03-06T01:28:19;19.30;;;13.37;;
29380;SDS011;16364;52.490;13.326;2024-03-06T01:30:45;21.10;;;14.30;;
29380;SDS011;16364;52.490;13.326;2024-03-06T01:33:10;20.00;;;14.40;;
29380;SDS011;16364;52.490;13.326;2024-03-06T01:35:36;22.70;;;13.57;;
29380;SDS011;16364;52.490;13.326;2024-03-06T01:38:01;23.03;;;15.00;;
29380;SDS011;16364;52.490;13.326;2024-03-06T01:40:26;24.00;;;13.77;;
29380;SDS011;16364;52.490;13.326;2024-03-06T01:42:52;21.03;;;14.10;;
29380;SDS011;16364;52.490;13.326;2024-03-06T01:45:17;16.20;;;11.70;;
29380;SDS011;16364;52.490;13.326;2024-03-06T01:47:43;19.10;;;13.10;;
29380;SDS011;16364;52.490;13.326;2024-03-06T01:50:08;22.87;;;15.13;;
29380;SDS011;16364;52.490;13.326;2024-03-06T01:52:34;23.07;;;13.20;;
29380;SDS011;16364;52.490;13.326;2024-03-06T01:55:00;25.17;;;13.33;;
29380;SDS011;16364;52.490;13.326;2024-03-06T01:57:25;22.87;;;13.83;;
29380;SDS011;16364;52.490;13.326;2024-03-06T01:59:51;22.43;;;13.70;;
29380;SDS011;16364;52.490;13.326;2024-03-06T02:02:16;21.10;;;13.40;;
29380;SDS011;16364;52.490;13.326;2024-03-06T02:04:42;20.53;;;13.30;;
29380;SDS011;16364;52.490;13.326;2024-03-06T02:07:08;21.07;;;12.93;;
29380;SDS011;16364;52.490;13.326;2024-03-06T02:09:33;23.47;;;14.83;;
29380;SDS011;16364;52.490;13.326;2024-03-06T02:11:58;25.80;;;13.77;;
29380;SDS011;16364;52.490;13.326;2024-03-06T02:14:24;19.60;;;13.60;;
29380;SDS011;16364;52.490;13.326;2024-03-06T02:16:49;24.83;;;14.23;;
29380;SDS011;16364;52.490;13.326;2024-03-06T02:19:14;17.23;;;12.83;;
29380;SDS011;16364;52.490;13.326;2024-03-06T02:21:40;22.53;;;14.53;;
29380;SDS011;16364;52.490;13.326;2024-03-06T02:24:05;22.27;;;14.07;;
29380;SDS011;16364;52.490;13.326;2024-03-06T02:26:31;19.43;;;13.60;;
29380;SDS011;16364;52.490;13.326;2024-03-06T02:28:56;17.63;;;13.27;;
29380;SDS011;16364;52.490;13.326;2024-03-06T02:31:21;17.80;;;12.67;;
29380;SDS011;16364;52.490;13.326;2024-03-06T02:33:48;21.07;;;13.40;;
29380;SDS011;16364;52.490;13.326;2024-03-06T02:36:14;21.87;;;14.97;;
29380;SDS011;16364;52.490;13.326;2024-03-06T02:38:39;19.73;;;13.73;;
29380;SDS011;16364;52.490;13.326;2024-03-06T02:41:05;20.60;;;13.67;;
29380;SDS011;16364;52.490;13.326;2024-03-06T02:43:32;20.50;;;13.10;;
29380;SDS011;16364;52.490;13.326;2024-03-06T02:45:57;18.30;;;12.53;;
29380;SDS011;16364;52.490;13.326;2024-03-06T02:48:22;23.50;;;15.80;;
29380;SDS011;16364;52.490;13.326;2024-03-06T02:50:47;22.67;;;14.53;;
29380;SDS011;16364;52.490;13.326;2024-03-06T02:53:13;22.40;;;13.77;;
29380;SDS011;16364;52.490;13.326;2024-03-06T02:55:38;18.17;;;12.67;;
29380;SDS011;16364;52.490;13.326;2024-03-06T02:58:04;20.13;;;13.10;;
29380;SDS011;16364;52.490;13.326;2024-03-06T03:00:29;23.30;;;14.00;;
29380;SDS011;16364;52.490;13.326;2024-03-06T03:02:55;22.47;;;14.83;;
29380;SDS011;16364;52.490;13.326;2024-03-06T03:05:20;19.77;;;13.40;;
29380;SDS011;16364;52.490;13.326;2024-03-06T03:07:46;21.60;;;15.50;;
29380;SDS011;16364;52.490;13.326;2024-03-06T03:10:11;26.93;;;15.07;;
29380;SDS011;16364;52.490;13.326;2024-03-06T03:12:40;22.30;;;14.87;;
29380;SDS011;16364;52.490;13.326;2024-03-06T03:15:05;25.10;;;15.50;;
29380;SDS011;16364;52.490;13.326;2024-03-06T03:17:31;25.20;;;15.67;;
29380;SDS011;16364;52.490;13.326;2024-03-06T03:19:57;24.00;;;16.23;;
29380;SDS011;16364;52.490;13.326;2024-03-06T03:22:23;29.43;;;16.30;;
29380;SDS011;16364;52.490;13.326;2024-03-06T03:24:48;25.33;;;17.20;;
29380;SDS011;16364;52.490;13.326;2024-03-06T03:27:13;33.17;;;15.83;;
29380;SDS011;16364;52.490;13.326;2024-03-06T03:29:39;21.17;;;14.20;;
29380;SDS011;16364;52.490;13.326;2024-03-06T03:32:05;22.53;;;15.33;;
29380;SDS011;16364;52.490;13.326;2024-03-06T03:34:30;23.43;;;15.03;;
29380;SDS011;16364;52.490;13.326;2024-03-06T03:36:55;22.10;;;14.30;;
29380;SDS011;16364;52.490;13.326;2024-03-06T03:39:21;28.33;;;15.90;;
29380;SDS011;16364;52.490;13.326;2024-03-06T03:41:49;24.20;;;17.30;;
29380;SDS011;16364;52.490;13.326;2024-03-06T03:44:15;21.73;;;13.90;;
29380;SDS011;16364;52.490;13.326;2024-03-06T03:46:40;23.33;;;14.50;;
29380;SDS011;16364;52.490;13.326;2024-03-06T03:49:06;26.27;;;15.13;;
29380;SDS011;16364;52.490;13.326;2024-03-06T03:51:31;25.43;;;14.80;;
29380;SDS011;16364;52.490;13.326;2024-03-06T03:53:56;24.20;;;16.60;;
29380;SDS011;16364;52.490;13.326;2024-03-06T03:56:21;25.20;;;15.23;;
29380;SDS011;16364;52.490;13.326;2024-03-06T03:58:47;19.77;;;13.77;;
29380;SDS011;16364;52.490;13.326;2024-03-06T04:01:12;23.40;;;14.97;;
29380;SDS011;16364;52.490;13.326;2024-03-06T04:03:38;23.97;;;14.67;;
29380;SDS011;16364;52.490;13.326;2024-03-06T04:06:05;17.20;;;13.47;;
29380;SDS011;16364;52.490;13.326;2024-03-06T04:08:31;23.37;;;14.93;;
29380;SDS011;16364;52.490;13.326;2024-03-06T04:10:56;23.00;;;14.60;;
29380;SDS011;16364;52.490;13.326;2024-03-06T04:13:22;20.90;;;15.30;;
29380;SDS011;16364;52.490;13.326;2024-03-06T04:15:47;19.93;;;13.60;;
29380;SDS011;16364;52.490;13.326;2024-03-06T04:18:12;21.77;;;14.33;;
29380;SDS011;16364;52.490;13.326;2024-03-06T04:20:37;26.10;;;16.00;;
29380;SDS011;16364;52.490;13.326;2024-03-06T04:23:03;26.53;;;14.40;;
29380;SDS011;16364;52.490;13.326;2024-03-06T04:25:28;25.40;;;14.93;;
29380;SDS011;16364;52.490;13.326;2024-03-06T04:27:54;21.40;;;14.67;;
29380;SDS011;16364;52.490;13.326;2024-03-06T04:30:19;22.97;;;15.90;;
29380;SDS011;16364;52.490;13.326;2024-03-06T04:32:44;23.83;;;15.20;;
29380;SDS011;16364;52.490;13.326;2024-03-06T04:35:09;24.70;;;14.87;;
29380;SDS011;16364;52.490;13.326;2024-03-06T04:37:35;21.67;;;13.53;;
29380;SDS011;16364;52.490;13.326;2024-03-06T04:40:00;23.40;;;13.07;;
29380;SDS011;16364;52.490;13.326;2024-03-06T04:42:25;23.43;;;13.73;;
29380;SDS011;16364;52.490;13.326;2024-03-06T04:44:51;20.77;;;14.10;;
29380;SDS011;16364;52.490;13.326;2024-03-06T04:47:16;23.20;;;15.60;;
29380;SDS011;16364;52.490;13.326;2024-03-06T04:49:41;24.10;;;14.43;;
29380;SDS011;16364;52.490;13.326;2024-03-06T04:52:07;22.40;;;14.83;;
29380;SDS011;16364;52.490;13.326;2024-03-06T04:54:34;25.30;;;14.90;;
29380;SDS011;16364;52.490;13.326;2024-03-06T04:56:59;28.07;;;15.47;;
29380;SDS011;16364;52.490;13.326;2024-03-06T04:59:24;25.07;;;15.67;;
29380;SDS011;16364;52.490;13.326;2024-03-06T05:01:51;22.93;;;14.97;;
29380;SDS011;16364;52.490;13.326;2024-03-06T05:04:16;25.30;;;15.67;;
29380;SDS011;16364;52.490;13.326;2024-03-06T05:06:41;30.43;;;16.53;;
29380;SDS011;16364;52.490;13.326;2024-03-06T05:09:06;24.20;;;14.17;;
29380;SDS011;16364;52.490;13.326;2024-03-06T05:11:32;27.93;;;15.63;;
29380;SDS011;16364;52.490;13.326;2024-03-06T05:13:58;22.40;;;15.07;;
29380;SDS011;16364;52.490;13.326;2024-03-06T05:16:24;27.40;;;14.93;;
29380;SDS011;16364;52.490;13.326;2024-03-06T05:18:49;27.70;;;15.80;;
29380;SDS011;16364;52.490;13.326;2024-03-06T05:21:15;23.53;;;14.67;;
29380;SDS011;16364;52.490;13.326;2024-03-06T05:23:40;27.27;;;17.17;;
29380;SDS011;16364;52.490;13.326;2024-03-06T05:26:05;24.87;;;15.40;;
29380;SDS011;16364;52.490;13.326;2024-03-06T05:28:30;23.00;;;14.83;;
29380;SDS011;16364;52.490;13.326;2024-03-06T05:30:56;22.97;;;15.03;;
29380;SDS011;16364;52.490;13.326;2024-03-06T05:33:21;24.40;;;15.90;;
29380;SDS011;16364;52.490;13.326;2024-03-06T05:35:47;23.60;;;16.40;;
29380;SDS011;16364;52.490;13.326;2024-03-06T05:38:12;20.97;;;15.37;;
29380;SDS011;16364;52.490;13.326;2024-03-06T05:40:37;26.27;;;16.87;;
29380;SDS011;16364;52.490;13.326;2024-03-06T05:43:05;27.23;;;16.10;;
29380;SDS011;16364;52.490;13.326;2024-03-06T05:45:30;23.63;;;14.73;;
29380;SDS011;16364;52.490;13.326;2024-03-06T05:47:55;24.80;;;14.10;;
29380;SDS011;16364;52.490;13.326;2024-03-06T05:50:21;20.07;;;14.60;;
29380;SDS011;16364;52.490;13.326;2024-03-06T05:52:46;25.50;;;15.70;;
29380;SDS011;16364;52.490;13.326;2024-03-06T05:55:11;27.37;;;17.47;;
29380;SDS011;16364;52.490;13.326;2024-03-06T05:57:36;28.90;;;17.20;;
29380;SDS011;16364;52.490;13.326;2024-03-06T06:00:02;25.20;;;15.87;;
29380;SDS011;16364;52.490;13.326;2024-03-06T06:02:27;25.93;;;17.00;;
29380;SDS011;16364;52.490;13.326;2024-03-06T06:04:52;28.57;;;16.53;;
29380;SDS011;16364;52.490;13.326;2024-03-06T06:07:18;25.37;;;16.47;;
29380;SDS011;16364;52.490;13.326;2024-03-06T06:09:43;31.43;;;17.57;;
29380;SDS011;16364;52.490;13.326;2024-03-06T06:12:08;26.13;;;15.50;;
29380;SDS011;16364;52.490;13.326;2024-03-06T06:14:34;24.87;;;15.00;;
29380;SDS011;16364;52.490;13.326;2024-03-06T06:16:59;26.53;;;15.80;;
29380;SDS011;16364;52.490;13.326;2024-03-06T06:19:24;24.37;;;15.87;;
29380;SDS011;16364;52.490;13.326;2024-03-06T06:21:51;31.93;;;17.07;;
29380;SDS011;16364;52.490;13.326;2024-03-06T06:24:18;27.13;;;16.23;;
29380;SDS011;16364;52.490;13.326;2024-03-06T06:26:43;28.67;;;17.97;;
29380;SDS011;16364;52.490;13.326;2024-03-06T06:29:08;33.87;;;18.10;;
29380;SDS011;16364;52.490;13.326;2024-03-06T06:31:34;24.67;;;16.00;;
29380;SDS011;16364;52.490;13.326;2024-03-06T06:33:59;33.30;;;17.70;;
29380;SDS011;16364;52.490;13.326;2024-03-06T06:36:24;26.60;;;15.60;;
29380;SDS011;16364;52.490;13.326;2024-03-06T06:38:49;25.60;;;17.17;;
29380;SDS011;16364;52.490;13.326;2024-03-06T06:41:15;22.97;;;15.37;;
29380;SDS011;16364;52.490;13.326;2024-03-06T06:43:40;26.87;;;15.97;;
29380;SDS011;16364;52.490;13.326;2024-03-06T06:46:06;29.23;;;17.13;;
29380;SDS011;16364;52.490;13.326;2024-03-06T06:48:32;27.13;;;17.67;;
29380;SDS011;16364;52.490;13.326;2024-03-06T06:50:58;30.23;;;17.10;;
29380;SDS011;16364;52.490;13.326;2024-03-06T06:53:24;37.27;;;20.20;;
29380;SDS011;16364;52.490;13.326;2024-03-06T06:55:49;34.03;;;17.60;;
29380;SDS011;16364;52.490;13.326;2024-03-06T06:58:14;29.00;;;17.20;;
29380;SDS011;16364;52.490;13.326;2024-03-06T07:00:40;25.87;;;16.00;;
29380;SDS011;16364;52.490;13.326;2024-03-06T07:03:06;31.13;;;17.47;;
29380;SDS011;16364;52.490;13.326;2024-03-06T07:05:32;26.77;;;14.47;;
29380;SDS011;16364;52.490;13.326;2024-03-06T07:07:58;28.00;;;17.97;;
29380;SDS011;16364;52.490;13.326;2024-03-06T07:10:23;30.80;;;18.17;;
29380;SDS011;16364;52.490;13.326;2024-03-06T07:12:48;31.40;;;19.00;;
29380;SDS011;16364;52.490;13.326;2024-03-06T07:15:14;30.00;;;18.13;;
29380;SDS011;16364;52.490;13.326;2024-03-06T07:17:39;31.43;;;19.47;;
29380;SDS011;16364;52.490;13.326;2024-03-06T07:20:04;37.37;;;19.40;;
29380;SDS011;16364;52.490;13.326;2024-03-06T07:22:33;29.47;;;16.57;;
29380;SDS011;16364;52.490;13.326;2024-03-06T07:24:59;30.97;;;19.90;;
29380;SDS011;16364;52.490;13.326;2024-03-06T07:27:24;27.80;;;16.83;;
29380;SDS011;16364;52.490;13.326;2024-03-06T07:29:49;31.43;;;17.00;;
29380;SDS011;16364;52.490;13.326;2024-03-06T07:32:15;28.90;;;16.80;;
29380;SDS011;16364;52.490;13.326;2024-03-06T07:34:40;30.30;;;17.90;;
29380;SDS011;16364;52.490;13.326;2024-03-06T07:40:08;28.80;;;15.87;;
29380;SDS011;16364;52.490;13.326;2024-03-06T07:42:34;24.70;;;15.80;;
29380;SDS011;16364;52.490;13.326;2024-03-06T07:44:59;24.10;;;14.90;;
29380;SDS011;16364;52.490;13.326;2024-03-06T07:47:25;23.23;;;15.47;;
29380;SDS011;16364;52.490;13.326;2024-03-06T07:49:50;27.03;;;16.70;;
29380;SDS011;16364;52.490;13.326;2024-03-06T07:52:16;23.93;;;15.20;;
29380;SDS011;16364;52.490;13.326;2024-03-06T07:54:41;21.10;;;15.90;;
29380;SDS011;16364;52.490;13.326;2024-03-06T07:57:06;24.60;;;15.30;;
29380;SDS011;16364;52.490;13.326;2024-03-06T07:59:31;22.97;;;15.60;;
29380;SDS011;16364;52.490;13.326;2024-03-06T08:01:56;20.60;;;13.30;;
29380;SDS011;16364;52.490;13.326;2024-03-06T08:04:22;21.80;;;13.90;;
29380;SDS011;16364;52.490;13.326;2024-03-06T08:06:48;21.17;;;13.03;;
29380;SDS011;16364;52.490;13.326;2024-03-06T08:09:13;22.53;;;13.67;;
29380;SDS011;16364;52.490;13.326;2024-03-06T08:11:39;22.00;;;13.30;;
29380;SDS011;16364;52.490;13.326;2024-03-06T08:14:05;22.03;;;13.80;;
29380;SDS011;16364;52.490;13.326;2024-03-06T08:16:31;13.30;;;10.30;;
29380;SDS011;16364;52.490;13.326;2024-03-06T08:18:56;20.30;;;11.07;;
29380;SDS011;16364;52.490;13.326;2024-03-06T08:21:24;11.63;;;10.00;;
29380;SDS011;16364;52.490;13.326;2024-03-06T08:23:49;17.73;;;11.17;;
29380;SDS011;16364;52.490;13.326;2024-03-06T08:26:14;18.00;;;10.27;;
29380;SDS011;16364;52.490;13.326;2024-03-06T08:28:40;14.73;;;10.90;;
29380;SDS011;16364;52.490;13.326;2024-03-06T08:31:05;17.37;;;10.90;;
29380;SDS011;16364;52.490;13.326;2024-03-06T08:33:30;12.50;;;9.67;;
29380;SDS011;16364;52.490;13.326;2024-03-06T08:35:56;13.67;;;9.17;;
29380;SDS011;16364;52.490;13.326;2024-03-06T08:38:23;13.90;;;9.27;;
29380;SDS011;16364;52.490;13.326;2024-03-06T08:40:48;12.87;;;9.43;;
29380;SDS011;16364;52.490;13.326;2024-03-06T08:43:13;15.47;;;9.30;;
29380;SDS011;16364;52.490;13.326;2024-03-06T08:45:40;11.70;;;8.53;;
29380;SDS011;16364;52.490;13.326;2024-03-06T08:48:05;13.87;;;8.03;;
29380;SDS011;16364;52.490;13.326;2024-03-06T08:50:31;14.00;;;9.30;;
29380;SDS011;16364;52.490;13.326;2024-03-06T08:52:56;15.10;;;10.87;;
29380;SDS011;16364;52.490;13.326;2024-03-06T08:55:21;15.20;;;9.93;;
29380;SDS011;16364;52.490;13.326;2024-03-06T08:57:47;15.83;;;9.23;;
29380;SDS011;16364;52.490;13.326;2024-03-06T09:00:12;11.83;;;9.60;;
29380;SDS011;16364;52.490;13.326;2024-03-06T09:02:39;11.40;;;8.60;;
29380;SDS011;16364;52.490;13.326;2024-03-06T09:05:05;17.20;;;11.23;;
29380;SDS011;16364;52.490;13.326;2024-03-06T09:07:30;13.10;;;9.70;;
29380;SDS011;16364;52.490;13.326;2024-03-06T09:09:56;14.07;;;9.67;;
29380;SDS011;16364;52.490;13.326;2024-03-06T09:12:22;10.80;;;8.50;;
29380;SDS011;16364;52.490;13.326;2024-03-06T09:14:47;9.40;;;7.27;;
29380;SDS011;16364;52.490;13.326;2024-03-06T09:17:12;13.07;;;8.80;;
29380;SDS011;16364;52.490;13.326;2024-03-06T09:19:41;12.13;;;8.87;;
29380;SDS011;16364;52.490;13.326;2024-03-06T09:22:06;10.17;;;9.00;;
29380;SDS011;16364;52.490;13.326;2024-03-06T09:24:32;8.90;;;8.00;;
29380;SDS011;16364;52.490;13.326;2024-03-06T09:26:57;8.80;;;7.10;;
29380;SDS011;16364;52.490;13.326;2024-03-06T09:29:23;12.00;;;8.87;;
29380;SDS011;16364;52.490;13.326;2024-03-06T09:31:48;12.70;;;8.20;;
29380;SDS011;16364;52.490;13.326;2024-03-06T09:34:14;9.33;;;8.10;;
29380;SDS011;16364;52.490;13.326;2024-03-06T09:36:40;9.60;;;7.40;;
29380;SDS011;16364;52.490;13.326;2024-03-06T09:39:08;7.73;;;6.97;;
29380;SDS011;16364;52.490;13.326;2024-03-06T09:41:34;9.67;;;7.63;;
29380;SDS011;16364;52.490;13.326;2024-03-06T09:43:59;9.00;;;6.90;;
29380;SDS011;16364;52.490;13.326;2024-03-06T09:46:25;11.07;;;7.90;;
29380;SDS011;16364;52.490;13.326;2024-03-06T09:48:52;9.97;;;6.97;;
29380;SDS011;16364;52.490;13.326;2024-03-06T09:51:17;8.00;;;6.63;;
29380;SDS011;16364;52.490;13.326;2024-03-06T09:53:42;12.17;;;6.07;;
29380;SDS011;16364;52.490;13.326;2024-03-06T09:56:10;7.00;;;6.13;;
29380;SDS011;16364;52.490;13.326;2024-03-06T09:58:36;8.97;;;7.00;;
29380;SDS011;16364;52.490;13.326;2024-03-06T10:01:02;9.23;;;6.40;;
29380;SDS011;16364;52.490;13.326;2024-03-06T10:03:28;9.80;;;7.77;;
29380;SDS011;16364;52.490;13.326;2024-03-06T10:05:54;13.13;;;7.40;;
29380;SDS011;16364;52.490;13.326;2024-03-06T10:08:21;8.50;;;7.13;;
29380;SDS011;16364;52.490;13.326;2024-03-06T10:10:50;9.70;;;7.50;;
29380;SDS011;16364;52.490;13.326;2024-03-06T10:13:18;11.03;;;8.97;;
29380;SDS011;16364;52.490;13.326;2024-03-06T10:16:03;13.00;;;9.47;;
29380;SDS011;16364;52.490;13.326;2024-03-06T10:18:29;8.00;;;7.20;;
29380;SDS011;16364;52.490;13.326;2024-03-06T10:20:55;10.40;;;6.30;;
29380;SDS011;16364;52.490;13.326;2024-03-06T10:23:20;5.80;;;5.17;;
29380;SDS011;16364;52.490;13.326;2024-03-06T10:25:46;7.17;;;5.80;;
29380;SDS011;16364;52.490;13.326;2024-03-06T10:28:15;9.10;;;6.17;;
29380;SDS011;16364;52.490;13.326;2024-03-06T10:30:41;7.97;;;7.13;;
29380;SDS011;16364;52.490;13.326;2024-03-06T10:33:11;7.37;;;5.30;;
29380;SDS011;16364;52.490;13.326;2024-03-06T10:35:37;7.27;;;6.57;;
29380;SDS011;16364;52.490;13.326;2024-03-06T10:38:05;9.70;;;7.57;;
29380;SDS011;16364;52.490;13.326;2024-03-06T10:40:32;11.30;;;7.40;;
29380;SDS011;16364;52.490;13.326;2024-03-06T10:43:02;11.20;;;7.60;;
29380;SDS011;16364;52.490;13.326;2024-03-06T10:45:49;8.10;;;7.30;;
29380;SDS011;16364;52.490;13.326;2024-03-06T10:48:17;7.83;;;6.80;;
29380;SDS011;16364;52.490;13.326;2024-03-06T10:50:44;10.10;;;7.00;;
29380;SDS011;16364;52.490;13.326;2024-03-06T10:53:10;8.93;;;6.63;;
29380;SDS011;16364;52.490;13.326;2024-03-06T10:55:36;7.20;;;5.93;;
29380;SDS011;16364;52.490;13.326;2024-03-06T10:58:02;7.57;;;6.83;;
29380;SDS011;16364;52.490;13.326;2024-03-06T11:00:29;10.27;;;6.57;;
29380;SDS011;16364;52.490;13.326;2024-03-06T11:02:55;9.33;;;6.43;;
29380;SDS011;16364;52.490;13.326;2024-03-06T11:05:20;6.03;;;5.50;;
29380;SDS011;16364;52.490;13.326;2024-03-06T11:07:46;8.33;;;6.00;;
29380;SDS011;16364;52.490;13.326;2024-03-06T11:10:11;7.23;;;6.30;;
29380;SDS011;16364;52.490;13.326;2024-03-06T11:12:45;9.33;;;6.67;;
29380;SDS011;16364;52.490;13.326;2024-03-06T11:15:15;9.10;;;6.70;;
29380;SDS011;16364;52.490;13.326;2024-03-06T11:17:43;10.40;;;6.73;;
29380;SDS011;16364;52.490;13.326;2024-03-06T11:20:12;10.00;;;7.57;;
29380;SDS011;16364;52.490;13.326;2024-03-06T11:28:05;8.60;;;6.70;;
29380;SDS011;16364;52.490;13.326;2024-03-06T11:30:31;9.00;;;6.50;;
29380;SDS011;16364;52.490;13.326;2024-03-06T11:32:59;11.37;;;6.87;;
29380;SDS011;16364;52.490;13.326;2024-03-06T11:35:28;8.13;;;6.73;;
29380;SDS011;16364;52.490;13.326;2024-03-06T11:37:54;7.97;;;6.53;;
29380;SDS011;16364;52.490;13.326;2024-03-06T11:40:23;9.07;;;6.97;;
29380;SDS011;16364;52.490;13.326;2024-03-06T11:42:52;10.80;;;8.17;;
29380;SDS011;16364;52.490;13.326;2024-03-06T11:45:17;12.90;;;9.13;;
29380;SDS011;16364;52.490;13.326;2024-03-06T11:48:02;10.90;;;7.83;;
29380;SDS011;16364;52.490;13.326;2024-03-06T11:50:28;8.23;;;7.30;;
29380;SDS011;16364;52.490;13.326;2024-03-06T11:52:55;6.87;;;5.70;;
29380;SDS011;16364;52.490;13.326;2024-03-06T11:55:21;13.57;;;8.93;;
29380;SDS011;16364;52.490;13.326;2024-03-06T11:57:46;10.10;;;7.50;;
29380;SDS011;16364;52.490;13.326;2024-03-06T12:00:12;7.27;;;6.57;;
29380;SDS011;16364;52.490;13.326;2024-03-06T12:02:38;6.30;;;5.70;;
29380;SDS011;16364;52.490;13.326;2024-03-06T12:05:03;9.03;;;8.10;;
29380;SDS011;16364;52.490;13.326;2024-03-06T12:07:30;11.00;;;8.07;;
29380;SDS011;16364;52.490;13.326;2024-03-06T12:09:57;14.20;;;10.20;;
29380;SDS011;16364;52.490;13.326;2024-03-06T12:12:23;11.30;;;10.13;;
29380;SDS011;16364;52.490;13.326;2024-03-06T12:14:55;13.50;;;10.03;;
29380;SDS011;16364;52.490;13.326;2024-03-06T12:17:21;12.60;;;11.00;;
29380;SDS011;16364;52.490;13.326;2024-03-06T12:19:47;14.87;;;11.73;;
29380;SDS011;16364;52.490;13.326;2024-03-06T12:22:13;11.90;;;9.63;;
29380;SDS011;16364;52.490;13.326;2024-03-06T12:24:40;11.63;;;10.30;;
29380;SDS011;16364;52.490;13.326;2024-03-06T12:27:06;13.30;;;11.90;;
29380;SDS011;16364;52.490;13.326;2024-03-06T12:29:32;12.90;;;11.50;;
29380;SDS011;16364;52.490;13.326;2024-03-06T12:31:58;11.53;;;10.33;;
29380;SDS011;16364;52.490;13.326;2024-03-06T12:34:23;11.20;;;10.07;;
29380;SDS011;16364;52.490;13.326;2024-03-06T12:36:49;12.00;;;10.80;;
29380;SDS011;16364;52.490;13.326;2024-03-06T12:39:15;12.27;;;10.80;;
29380;SDS011;16364;52.490;13.326;2024-03-06T12:41:43;12.43;;;10.60;;
29380;SDS011;16364;52.490;13.326;2024-03-06T12:44:08;9.73;;;8.77;;
29380;SDS011;16364;52.490;13.326;2024-03-06T12:46:33;9.90;;;8.90;;
29380;SDS011;16364;52.490;13.326;2024-03-06T12:48:59;8.03;;;7.23;;
29380;SDS011;16364;52.490;13.326;2024-03-06T12:51:24;9.53;;;6.63;;
29380;SDS011;16364;52.490;13.326;2024-03-06T12:53:50;7.77;;;7.03;;
29380;SDS011;16364;52.490;13.326;2024-03-06T12:56:16;7.63;;;6.93;;
29380;SDS011;16364;52.490;13.326;2024-03-06T12:58:41;8.40;;;7.60;;
29380;SDS011;16364;52.490;13.326;2024-03-06T13:01:07;8.70;;;7.57;;
29380;SDS011;16364;52.490;13.326;2024-03-06T13:03:32;8.77;;;7.17;;
29380;SDS011;16364;52.490;13.326;2024-03-06T13:05:57;10.30;;;8.57;;
29380;SDS011;16364;52.490;13.326;2024-03-06T13:08:23;8.60;;;7.80;;
29380;SDS011;16364;52.490;13.326;2024-03-06T13:10:48;10.17;;;9.13;;
29380;SDS011;16364;52.490;13.326;2024-03-06T13:13:14;10.50;;;7.53;;
29380;SDS011;16364;52.490;13.326;2024-03-06T13:15:39;15.30;;;9.73;;
29380;SDS011;16364;52.490;13.326;2024-03-06T13:18:04;12.10;;;8.87;;
29380;SDS011;16364;52.490;13.326;2024-03-06T13:20:30;9.87;;;8.77;;
29380;SDS011;16364;52.490;13.326;2024-03-06T13:22:55;10.60;;;9.50;;
29380;SDS011;16364;52.490;13.326;2024-03-06T13:25:20;17.03;;;10.17;;
29380;SDS011;16364;52.490;13.326;2024-03-06T13:27:46;9.53;;;8.60;;
29380;SDS011;16364;52.490;13.326;2024-03-06T13:30:11;12.00;;;9.17;;
29380;SDS011;16364;52.490;13.326;2024-03-06T13:32:37;12.80;;;9.53;;
29380;SDS011;16364;52.490;13.326;2024-03-06T13:35:02;13.83;;;10.17;;
29380;SDS011;16364;52.490;13.326;2024-03-06T13:37:28;34.93;;;23.83;;
29380;SDS011;16364;52.490;13.326;2024-03-06T13:39:53;31.83;;;19.43;;
29380;SDS011;16364;52.490;13.326;2024-03-06T13:42:23;34.43;;;18.93;;
29380;SDS011;16364;52.490;13.326;2024-03-06T13:44:48;20.93;;;13.13;;
29380;SDS011;16364;52.490;13.326;2024-03-06T13:47:14;37.57;;;22.10;;
29380;SDS011;16364;52.490;13.326;2024-03-06T13:49:41;27.67;;;14.60;;
29380;SDS011;16364;52.490;13.326;2024-03-06T13:52:07;27.37;;;16.37;;
29380;SDS011;16364;52.490;13.326;2024-03-06T13:54:33;17.63;;;12.33;;
29380;SDS011;16364;52.490;13.326;2024-03-06T13:56:58;16.17;;;11.17;;
29380;SDS011;16364;52.490;13.326;2024-03-06T13:59:35;20.27;;;11.80;;
29380;SDS011;16364;52.490;13.326;2024-03-06T14:02:01;18.83;;;12.13;;
29380;SDS011;16364;52.490;13.326;2024-03-06T14:04:27;14.83;;;10.30;;
29380;SDS011;16364;52.490;13.326;2024-03-06T14:06:53;29.97;;;12.77;;
29380;SDS011;16364;52.490;13.326;2024-03-06T14:09:18;24.00;;;14.77;;
29380;SDS011;16364;52.490;13.326;2024-03-06T14:11:43;19.40;;;13.20;;
29380;SDS011;16364;52.490;13.326;2024-03-06T14:14:09;22.23;;;13.20;;